Terminal Aerodrome Forecast
Issued by NWS Shreveport, LA

Home | Current Version | Previous Version | Text Only | Print | Product List | Glossary On
Versions: 1 2 3 4 5 6 7 8 9 10 11 12 13 14 15 16 17
000
FTUS44 KSHV 171700
TAFTYR
TAF
KTYR 171720Z 1718/1818 11007KT P6SM VCSH OVC060
     FM172100 13006KT P6SM -RA OVC050
     FM180600 13006KT 5SM -SHRA BR OVC025
     FM180900 13006KT 3SM -SHRA BR OVC007
     FM181600 13005KT 5SM BR OVC010=

USA.gov is the U.S. government's official web portal to all federal, state and local government web resources and services.